Aviation Digital Data Service (ADDS)

Output produced by METARs form (2207 UTC 29 August 2014)
found at http://aviationweather.gov/adds/metars/
 
KHYA 291724Z 2918/3018 02009G17KT P6SM FEW025 
     FM292200 06006KT P6SM FEW250 
     FM300500 VRB03KT P6SM BKN050 
     FM300900 16004KT P6SM SCT200